Time;durP1;ratioP1;P1;durP2;ratioP2;P2;SDS_P1;SDS_P2;PMS_P1;PMS_P2;Temp;Humidity;BMP_temperature;BMP_pressure;BME280_temperature;BME280_humidity;BME280_pressure;Samples;Min_cycle;Max_cycle;Signal;HPM_P1;HPM_P2
2022/05/28 00:01:10;;;;;;;8.10;2.00;;;13.20;1.00;;;;;;5052351;28;21000;-54
2022/05/28 00:03:36;;;;;;;5.40;1.20;;;13.10;1.00;;;;;;5049380;28;20442;-54
2022/05/28 00:06:02;;;;;;;5.60;1.80;;;13.00;1.00;;;;;;5050737;28;20500;-55
2022/05/28 00:08:28;;;;;;;5.50;2.07;;;13.00;1.00;;;;;;5047838;28;20927;-55
2022/05/28 00:10:57;;;;;;;5.50;1.53;;;13.00;1.00;;;;;;5047845;28;20191;-54
2022/05/28 00:13:23;;;;;;;4.73;1.37;;;13.00;1.00;;;;;;5053150;28;20490;-53
2022/05/28 00:15:50;;;;;;;5.30;1.70;;;12.90;1.00;;;;;;5044070;28;20458;-57
2022/05/28 00:18:17;;;;;;;5.60;1.60;;;13.00;1.00;;;;;;5049798;28;20671;-54
2022/05/28 00:20:42;;;;;;;4.10;1.50;;;12.90;1.00;;;;;;5045355;28;21158;-52
2022/05/28 00:23:08;;;;;;;5.07;1.70;;;12.80;1.00;;;;;;5048092;28;20545;-54
2022/05/28 00:25:34;;;;;;;5.27;1.80;;;12.80;1.00;;;;;;5050974;28;20175;-54
2022/05/28 00:27:59;;;;;;;10.73;2.67;;;12.90;1.00;;;;;;5049209;28;20315;-56
2022/05/28 00:30:25;;;;;;;7.87;1.60;;;12.90;1.00;;;;;;5060797;28;20614;-53
2022/05/28 00:32:50;;;;;;;2.50;1.53;;;12.90;1.00;;;;;;5046603;28;20271;-53
2022/05/28 00:35:18;;;;;;;6.03;1.33;;;12.90;1.00;;;;;;5049953;28;20672;-54
2022/05/28 00:37:45;;;;;;;5.47;2.00;;;12.90;1.00;;;;;;5047807;28;20205;-54
2022/05/28 00:40:15;;;;;;;3.60;1.43;;;12.90;1.00;;;;;;5050494;28;20485;-55
2022/05/28 00:42:41;;;;;;;4.80;1.80;;;12.80;1.00;;;;;;5061381;28;20452;-55
2022/05/28 00:45:08;;;;;;;3.07;1.47;;;12.80;1.00;;;;;;5050529;28;20478;-55
2022/05/28 00:47:34;;;;;;;2.17;1.10;;;12.90;1.00;;;;;;5043984;28;20458;-54
2022/05/28 00:50:02;;;;;;;5.83;1.60;;;12.80;1.00;;;;;;5045545;28;20478;-54
2022/05/28 00:52:27;;;;;;;4.60;1.50;;;13.00;1.00;;;;;;5047524;28;20219;-55
2022/05/28 00:54:54;;;;;;;8.43;1.73;;;12.90;1.00;;;;;;5045969;28;20515;-54
2022/05/28 00:57:20;;;;;;;9.73;1.57;;;12.80;1.00;;;;;;5056098;28;20180;-55
2022/05/28 00:59:46;;;;;;;7.70;1.80;;;12.70;1.00;;;;;;5048388;28;20465;-55
2022/05/28 01:02:24;;;;;;;4.23;1.40;;;12.80;1.00;;;;;;5047463;28;20476;-55
2022/05/28 01:05:02;;;;;;;3.50;1.40;;;12.70;1.00;;;;;;5047840;28;20464;-55
2022/05/28 01:07:49;;;;;;;5.77;1.77;;;11.60;1.00;;;;;;5047494;28;20445;-56
2022/05/28 01:10:37;;;;;;;5.53;1.43;;;12.80;1.00;;;;;;5047076;28;20498;-56
2022/05/28 01:13:30;;;;;;;5.27;1.70;;;12.80;1.00;;;;;;5049749;28;20518;-53
2022/05/28 01:16:02;;;;;;;4.23;1.40;;;12.70;1.00;;;;;;5048470;28;20442;-54
2022/05/28 01:18:56;;;;;;;5.10;1.67;;;12.60;1.00;;;;;;5050252;28;20883;-55
2022/05/28 01:21:51;;;;;;;6.03;1.50;;;12.60;1.00;;;;;;5044002;28;20442;-55
2022/05/28 01:24:31;;;;;;;4.30;1.23;;;12.60;1.00;;;;;;5048576;28;20495;-55
2022/05/28 01:26:57;;;;;;;7.30;2.00;;;;;;;;;;5047534;28;21037;-54
2022/05/28 01:29:26;;;;;;;4.57;1.60;;;12.40;1.00;;;;;;5046570;28;20528;-53
2022/05/28 01:31:53;;;;;;;6.43;2.37;;;12.50;1.00;;;;;;5045983;28;20545;-53
2022/05/28 01:34:20;;;;;;;2.63;1.10;;;12.40;1.00;;;;;;5050017;28;20448;-54
2022/05/28 01:36:48;;;;;;;7.07;1.90;;;12.40;1.00;;;;;;5044180;28;20505;-52
2022/05/28 01:39:15;;;;;;;3.60;1.50;;;;;;;;;;5062403;28;20457;-54
2022/05/28 01:41:41;;;;;;;6.50;1.53;;;12.40;1.00;;;;;;5046497;28;20760;-55
2022/05/28 01:44:12;;;;;;;3.50;1.70;;;12.40;1.00;;;;;;5046828;28;20494;-55
2022/05/28 01:46:39;;;;;;;3.13;1.67;;;12.00;1.00;;;;;;5047269;28;20472;-51
2022/05/28 01:49:08;;;;;;;4.23;2.00;;;12.30;1.00;;;;;;5048096;28;20462;-53
2022/05/28 01:51:37;;;;;;;3.97;1.00;;;12.20;1.00;;;;;;5046149;28;20446;-56
2022/05/28 01:54:07;;;;;;;10.03;2.03;;;12.30;1.00;;;;;;5047155;28;20532;-56
2022/05/28 01:56:33;;;;;;;7.13;1.43;;;12.30;1.00;;;;;;5045189;28;20446;-54
2022/05/28 01:58:59;;;;;;;4.20;1.43;;;12.30;1.00;;;;;;5048368;28;20442;-55
2022/05/28 02:01:26;;;;;;;9.00;1.80;;;12.30;1.00;;;;;;5049304;28;20500;-55
2022/05/28 02:03:58;;;;;;;4.07;1.30;;;12.40;1.00;;;;;;5051832;28;20511;-54
2022/05/28 02:06:24;;;;;;;2.83;1.40;;;12.30;1.00;;;;;;5055756;28;20446;-54
2022/05/28 02:08:51;;;;;;;7.23;1.60;;;12.30;1.00;;;;;;5051694;28;20545;-53
2022/05/28 02:11:20;;;;;;;9.57;1.70;;;12.20;1.00;;;;;;5050288;28;20446;-54
2022/05/28 02:14:07;;;;;;;3.93;1.37;;;12.30;1.00;;;;;;5051320;28;20493;-55
2022/05/28 02:16:35;;;;;;;6.00;1.80;;;12.30;1.00;;;;;;5053832;28;20450;-54
2022/05/28 02:19:05;;;;;;;8.87;1.40;;;;;;;;;;5051585;28;20465;-54
2022/05/28 02:21:40;;;;;;;7.10;1.77;;;12.50;1.00;;;;;;5051283;28;20454;-55
2022/05/28 02:24:23;;;;;;;8.70;2.27;;;12.30;1.00;;;;;;5050022;28;20541;-52
2022/05/28 02:26:52;;;;;;;5.07;1.57;;;12.30;1.00;;;;;;5048749;28;20481;-55
2022/05/28 02:29:18;;;;;;;3.43;1.40;;;12.30;1.00;;;;;;5049239;28;20462;-56
2022/05/28 02:31:46;;;;;;;8.13;1.50;;;12.10;1.00;;;;;;5051482;28;20449;-54
2022/05/28 02:34:13;;;;;;;3.77;1.40;;;12.10;1.00;;;;;;5050840;28;20477;-55
2022/05/28 02:36:40;;;;;;;7.10;1.90;;;12.00;1.00;;;;;;5051416;28;20473;-54
2022/05/28 02:39:06;;;;;;;4.23;1.83;;;12.10;1.00;;;;;;5041622;28;20541;-54
2022/05/28 02:41:32;;;;;;;2.30;1.40;;;12.10;1.00;;;;;;5048506;28;20550;-54
2022/05/28 02:43:57;;;;;;;10.90;1.50;;;12.00;1.00;;;;;;5051217;28;20509;-55
2022/05/28 02:46:23;;;;;;;4.17;1.77;;;;;;;;;;5052490;28;21009;-55
2022/05/28 02:48:49;;;;;;;4.50;1.53;;;12.00;1.00;;;;;;5051792;28;20180;-56
2022/05/28 02:51:19;;;;;;;4.33;1.40;;;12.10;1.00;;;;;;5050823;28;20450;-55
2022/05/28 02:53:45;;;;;;;6.23;2.10;;;12.10;1.00;;;;;;5050361;28;20447;-55
2022/05/28 02:56:12;;;;;;;4.70;3.03;;;12.10;1.00;;;;;;5048097;28;20477;-55
2022/05/28 02:58:39;;;;;;;4.23;1.83;;;12.00;1.00;;;;;;5049161;28;20545;-54
2022/05/28 03:01:33;;;;;;;7.50;1.90;;;11.90;1.00;;;;;;5047130;28;20454;-55
2022/05/28 03:04:00;;;;;;;4.77;1.80;;;11.80;1.00;;;;;;5049545;28;20529;-54
2022/05/28 03:06:26;;;;;;;6.20;1.40;;;11.70;1.00;;;;;;5050855;28;20450;-55
2022/05/28 03:08:52;;;;;;;3.57;1.63;;;11.70;1.00;;;;;;5048979;28;20525;-54
2022/05/28 03:11:19;;;;;;;4.67;1.33;;;11.90;1.00;;;;;;5047967;28;20474;-53
2022/05/28 03:13:45;;;;;;;7.70;1.93;;;11.80;1.00;;;;;;5049309;28;20470;-55
2022/05/28 03:16:11;;;;;;;7.40;1.77;;;11.80;1.00;;;;;;5050422;28;20504;-55
2022/05/28 03:18:37;;;;;;;8.27;2.43;;;11.80;1.00;;;;;;5049960;28;20811;-54
2022/05/28 03:21:09;;;;;;;6.00;1.80;;;11.70;1.00;;;;;;5050217;28;20487;-53
2022/05/28 03:23:34;;;;;;;5.67;1.40;;;;;;;;;;5048324;28;20210;-55
2022/05/28 03:26:21;;;;;;;4.03;1.60;;;11.70;1.00;;;;;;5050728;28;20482;-55
2022/05/28 03:28:51;;;;;;;2.57;1.37;;;11.70;1.00;;;;;;5048694;28;20453;-56
2022/05/28 03:31:18;;;;;;;6.80;1.37;;;11.70;1.00;;;;;;5051558;28;20451;-55
2022/05/28 03:33:44;;;;;;;5.27;1.90;;;11.80;1.00;;;;;;5049814;28;20519;-55
2022/05/28 03:36:10;;;;;;;6.13;1.73;;;12.00;1.00;;;;;;5050167;28;20442;-55
2022/05/28 03:38:37;;;;;;;5.47;1.30;;;12.00;1.00;;;;;;5046043;28;20538;-56
2022/05/28 03:41:06;;;;;;;2.83;1.40;;;12.20;1.00;;;;;;5048065;28;20812;-55
2022/05/28 03:43:32;;;;;;;9.43;1.83;;;12.20;1.00;;;;;;5048862;28;20442;-56
2022/05/28 03:45:57;;;;;;;6.53;1.60;;;12.20;1.00;;;;;;5049716;28;20482;-53
2022/05/28 03:48:24;;;;;;;6.90;1.73;;;12.20;1.00;;;;;;5057472;28;20204;-55
2022/05/28 03:50:49;;;;;;;6.47;1.17;;;12.30;1.00;;;;;;5041852;28;20213;-55
2022/05/28 03:53:16;;;;;;;5.37;2.03;;;;;;;;;;5050873;28;20734;-56
2022/05/28 03:55:42;;;;;;;5.17;1.23;;;12.30;1.00;;;;;;5048973;28;20203;-54
2022/05/28 03:58:08;;;;;;;2.47;1.47;;;12.30;1.00;;;;;;5047626;28;20907;-56
2022/05/28 04:00:34;;;;;;;5.03;1.30;;;12.30;1.00;;;;;;5046860;28;20531;-55
2022/05/28 04:03:00;;;;;;;3.77;1.60;;;12.40;1.00;;;;;;5050074;28;20453;-55
2022/05/28 04:05:27;;;;;;;3.40;1.10;;;12.50;1.00;;;;;;5049472;28;20973;-56
2022/05/28 04:07:52;;;;;;;1.17;0.80;;;12.30;1.00;;;;;;5047814;28;20760;-55
2022/05/28 04:10:18;;;;;;;4.50;1.03;;;12.40;1.00;;;;;;5047755;28;20458;-57
2022/05/28 04:12:44;;;;;;;2.27;1.60;;;12.40;1.00;;;;;;5049090;28;20214;-55
2022/05/28 04:15:10;;;;;;;8.30;2.90;;;12.40;1.00;;;;;;5049921;28;20188;-52
2022/05/28 04:17:37;;;;;;;3.97;1.17;;;12.40;1.00;;;;;;5050257;28;20465;-55
2022/05/28 04:20:05;;;;;;;4.10;1.43;;;12.30;1.00;;;;;;5047880;28;21158;-56
2022/05/28 04:22:30;;;;;;;5.60;2.23;;;12.20;1.00;;;;;;5048347;28;20462;-55
2022/05/28 04:24:56;;;;;;;5.27;0.93;;;12.20;1.00;;;;;;5044943;28;21599;-54
2022/05/28 04:27:21;;;;;;;4.77;1.33;;;12.20;1.00;;;;;;5048892;28;20196;-53
2022/05/28 04:29:47;;;;;;;3.07;1.40;;;12.20;1.00;;;;;;5047507;28;20203;-53
2022/05/28 04:32:12;;;;;;;4.00;1.30;;;12.30;1.00;;;;;;5048538;28;20265;-55
2022/05/28 04:34:38;;;;;;;3.43;1.40;;;12.20;1.00;;;;;;5047486;28;20326;-53
2022/05/28 04:37:04;;;;;;;5.93;1.20;;;12.10;1.00;;;;;;5048257;28;20275;-55
2022/05/28 04:39:29;;;;;;;6.63;1.47;;;12.20;1.00;;;;;;5048401;28;20630;-54
2022/05/28 04:41:55;;;;;;;3.60;0.87;;;12.40;1.00;;;;;;5045680;28;20474;-57
2022/05/28 04:44:20;;;;;;;1.97;1.10;;;12.30;1.00;;;;;;5045830;28;20199;-55
2022/05/28 04:46:46;;;;;;;3.03;1.17;;;12.40;1.00;;;;;;5046930;28;20301;-52
2022/05/28 04:49:11;;;;;;;2.07;1.50;;;12.40;1.00;;;;;;5050718;28;20892;-52
2022/05/28 04:51:37;;;;;;;3.43;1.10;;;12.20;1.00;;;;;;5047892;28;20195;-56
2022/05/28 04:54:03;;;;;;;4.60;1.50;;;12.10;1.00;;;;;;5045708;28;20246;-55
2022/05/28 04:56:28;;;;;;;6.27;1.50;;;11.40;1.00;;;;;;5046513;28;20276;-56
2022/05/28 04:58:54;;;;;;;6.30;1.83;;;11.30;1.00;;;;;;5039337;28;20281;-54
2022/05/28 05:01:22;;;;;;;3.40;1.43;;;11.30;1.00;;;;;;5047849;28;20184;-56
2022/05/28 05:03:47;;;;;;;4.47;1.23;;;11.20;1.00;;;;;;5052410;28;20218;-54
2022/05/28 05:06:13;;;;;;;3.37;1.40;;;11.10;1.00;;;;;;5044635;28;20508;-57
2022/05/28 05:08:39;;;;;;;4.83;1.67;;;11.20;1.00;;;;;;5048821;28;20223;-55
2022/05/28 05:11:07;;;;;;;6.40;2.10;;;11.20;1.00;;;;;;5049096;28;20638;-55
2022/05/28 05:13:33;;;;;;;5.83;1.80;;;11.40;1.00;;;;;;5047171;28;20192;-53
2022/05/28 05:15:58;;;;;;;6.57;2.40;;;11.40;1.00;;;;;;5047035;28;20461;-54
2022/05/28 05:18:25;;;;;;;7.03;1.90;;;11.50;1.00;;;;;;5048055;28;20190;-55
2022/05/28 05:20:51;;;;;;;3.23;1.43;;;11.40;1.00;;;;;;5045359;28;20195;-56
2022/05/28 05:23:17;;;;;;;4.27;1.50;;;;;;;;;;5047484;28;20451;-55
2022/05/28 05:25:43;;;;;;;4.80;1.87;;;11.20;1.00;;;;;;5048023;28;20241;-55
2022/05/28 05:28:09;;;;;;;3.40;1.67;;;11.20;1.00;;;;;;5041602;28;20535;-55
2022/05/28 05:30:34;;;;;;;6.73;2.03;;;11.20;1.00;;;;;;5049195;28;20509;-55
2022/05/28 05:33:00;;;;;;;10.50;1.60;;;11.20;1.00;;;;;;5047050;28;20656;-55
2022/05/28 05:35:25;;;;;;;7.50;2.23;;;11.20;1.00;;;;;;5046140;28;20215;-55
2022/05/28 05:37:51;;;;;;;3.33;1.47;;;11.20;1.00;;;;;;5046061;28;20198;-56
2022/05/28 05:40:16;;;;;;;2.20;1.50;;;11.40;1.00;;;;;;5045915;28;20191;-54
2022/05/28 05:42:42;;;;;;;3.63;1.03;;;11.30;1.00;;;;;;5048172;28;20199;-55
2022/05/28 05:45:08;;;;;;;2.93;1.20;;;11.30;1.00;;;;;;5050747;28;20220;-56
2022/05/28 05:47:35;;;;;;;4.70;1.00;;;11.10;1.00;;;;;;5050652;28;20234;-56
2022/05/28 05:50:01;;;;;;;5.57;1.10;;;11.20;1.00;;;;;;5045623;28;20473;-54
2022/05/28 05:52:26;;;;;;;1.33;1.10;;;11.20;1.00;;;;;;5047068;28;20449;-55
2022/05/28 05:54:53;;;;;;;3.10;0.83;;;11.30;1.00;;;;;;5047955;28;20220;-56
2022/05/28 05:57:19;;;;;;;1.57;0.73;;;11.40;1.00;;;;;;5045654;28;20295;-56
2022/05/28 05:59:44;;;;;;;2.27;0.80;;;11.30;1.00;;;;;;5048115;28;20882;-57
2022/05/28 06:02:11;;;;;;;1.40;0.90;;;11.20;1.00;;;;;;5047186;28;20204;-55
2022/05/28 06:04:37;;;;;;;2.77;0.70;;;11.00;1.00;;;;;;5050123;28;20219;-56
2022/05/28 06:07:06;;;;;;;1.40;0.93;;;10.90;1.00;;;;;;5056546;28;20482;-56
2022/05/28 06:09:32;;;;;;;1.77;0.93;;;11.10;1.00;;;;;;5045103;28;20490;-55
2022/05/28 06:11:58;;;;;;;1.10;0.50;;;11.00;1.00;;;;;;5043472;28;20454;-54
2022/05/28 06:14:24;;;;;;;1.13;0.60;;;;;;;;;;5047182;28;20442;-56
2022/05/28 06:16:50;;;;;;;1.40;1.10;;;11.20;1.00;;;;;;5050702;28;20587;-55
2022/05/28 06:19:16;;;;;;;0.83;0.43;;;11.60;1.00;;;;;;5052323;28;20449;-54
2022/05/28 06:21:42;;;;;;;1.20;0.60;;;11.80;1.00;;;;;;5043466;28;20215;-54
2022/05/28 06:24:07;;;;;;;0.60;0.60;;;12.00;1.00;;;;;;5048240;28;20519;-55
2022/05/28 06:26:33;;;;;;;1.33;0.60;;;11.90;1.00;;;;;;5045168;28;20279;-55
2022/05/28 06:28:58;;;;;;;1.20;0.70;;;12.00;1.00;;;;;;5045714;28;20208;-55
2022/05/28 06:31:24;;;;;;;1.10;0.73;;;11.90;1.00;;;;;;5043689;28;20188;-56
2022/05/28 06:33:49;;;;;;;1.07;0.60;;;12.10;1.00;;;;;;5045769;28;20722;-57
2022/05/28 06:36:15;;;;;;;0.80;0.50;;;12.30;1.00;;;;;;5044486;28;20215;-56
2022/05/28 06:38:41;;;;;;;0.83;0.50;;;12.40;1.00;;;;;;5046932;28;20191;-55
2022/05/28 06:43:33;;;;;;;1.33;0.53;;;;;;;;;;5045102;28;20459;-55
2022/05/28 06:46:08;;;;;;;1.50;0.63;;;12.60;1.00;;;;;;5044577;28;20568;-56
2022/05/28 06:48:35;;;;;;;2.13;0.87;;;12.70;1.00;;;;;;5052503;28;20474;-56
2022/05/28 06:51:01;;;;;;;0.90;0.60;;;12.60;1.00;;;;;;5063419;28;20473;-55
2022/05/28 06:53:28;;;;;;;1.80;0.60;;;12.50;1.00;;;;;;5051640;28;20943;-56
2022/05/28 06:55:54;;;;;;;1.63;0.60;;;12.80;1.00;;;;;;5051128;28;20344;-56
2022/05/28 06:58:20;;;;;;;1.37;0.60;;;;;;;;;;5055147;28;20461;-53
2022/05/28 07:00:45;;;;;;;4.67;1.37;;;13.10;1.00;;;;;;5059740;28;20221;-55
2022/05/28 07:03:13;;;;;;;3.87;0.80;;;13.00;1.00;;;;;;5050384;28;20460;-55
2022/05/28 07:05:39;;;;;;;1.80;0.70;;;13.30;1.00;;;;;;5051378;28;20537;-56
2022/05/28 07:08:05;;;;;;;1.80;0.80;;;13.30;1.00;;;;;;5049427;28;20507;-56
2022/05/28 07:10:30;;;;;;;2.03;1.00;;;13.10;1.00;;;;;;5050396;28;20270;-56
2022/05/28 07:12:56;;;;;;;2.30;0.90;;;13.10;1.00;;;;;;5048805;28;20746;-56
2022/05/28 07:15:22;;;;;;;3.23;1.17;;;13.20;1.00;;;;;;5050409;28;20384;-55
2022/05/28 07:17:48;;;;;;;1.73;0.60;;;13.40;1.00;;;;;;5049801;28;21077;-58
2022/05/28 07:20:14;;;;;;;3.83;0.90;;;13.20;1.00;;;;;;5048927;28;20447;-55
2022/05/28 07:22:39;;;;;;;2.27;0.77;;;13.50;1.00;;;;;;5051037;28;20241;-57
2022/05/28 07:25:06;;;;;;;3.30;0.80;;;13.70;1.00;;;;;;5048192;28;20176;-54
2022/05/28 07:27:31;;;;;;;4.87;0.90;;;13.70;1.00;;;;;;5053436;28;20452;-56
2022/05/28 07:29:57;;;;;;;2.73;0.80;;;13.70;1.00;;;;;;5057387;28;20470;-54
2022/05/28 07:32:25;;;;;;;4.83;1.00;;;13.50;1.00;;;;;;5049895;28;20203;-55
2022/05/28 07:34:51;;;;;;;2.60;0.97;;;13.50;1.00;;;;;;5048290;28;20188;-55
2022/05/28 07:37:17;;;;;;;2.97;0.80;;;13.60;1.00;;;;;;5051140;28;20533;-56
2022/05/28 07:39:42;;;;;;;3.30;1.20;;;13.70;1.00;;;;;;5049111;28;20550;-55
2022/05/28 07:42:08;;;;;;;2.30;0.93;;;14.10;1.00;;;;;;5047865;28;20451;-54
2022/05/28 07:44:34;;;;;;;4.00;1.70;;;13.90;1.00;;;;;;5046445;28;20192;-54
2022/05/28 07:47:04;;;;;;;2.43;1.00;;;13.90;1.00;;;;;;5049742;28;20477;-56
2022/05/28 07:49:29;;;;;;;2.07;0.90;;;13.40;1.00;;;;;;5050263;28;20792;-55
2022/05/28 07:51:55;;;;;;;4.23;1.60;;;13.40;1.00;;;;;;5049037;28;20450;-53
2022/05/28 07:54:20;;;;;;;3.13;1.03;;;13.70;1.00;;;;;;5048166;28;20195;-55
2022/05/28 07:56:46;;;;;;;2.40;0.97;;;13.70;1.00;;;;;;5050206;28;20637;-56
2022/05/28 07:59:11;;;;;;;6.20;1.90;;;13.40;1.00;;;;;;5047463;28;20200;-51
2022/05/28 08:01:39;;;;;;;2.03;1.00;;;13.30;1.00;;;;;;5050035;28;20187;-55
2022/05/28 08:04:05;;;;;;;6.63;1.87;;;13.40;1.00;;;;;;5050592;28;20187;-55
2022/05/28 08:06:33;;;;;;;3.33;1.20;;;13.40;1.00;;;;;;5051262;28;20464;-55
2022/05/28 08:09:00;;;;;;;8.30;1.97;;;13.70;1.00;;;;;;5045612;28;20443;-57
2022/05/28 08:11:26;;;;;;;1.73;0.80;;;;;;;;;;5052326;28;20442;-53
2022/05/28 08:13:53;;;;;;;3.90;1.50;;;14.40;1.00;;;;;;5046819;28;20773;-55
2022/05/28 08:16:19;;;;;;;4.63;1.50;;;14.50;1.00;;;;;;5049204;28;20438;-56
2022/05/28 08:18:45;;;;;;;3.17;1.23;;;14.40;1.00;;;;;;5047603;28;20882;-53
2022/05/28 08:23:57;;;;;;;5.20;1.30;;;14.70;1.00;;;;;;5048346;28;20523;-56
2022/05/28 08:26:24;;;;;;;4.03;1.10;;;14.80;1.00;;;;;;5046627;28;20450;-56
2022/05/28 08:28:50;;;;;;;3.43;1.27;;;15.00;1.00;;;;;;5044277;28;20556;-55
2022/05/28 08:31:17;;;;;;;3.23;1.10;;;15.10;1.00;;;;;;5048150;28;20451;-56
2022/05/28 08:33:43;;;;;;;2.97;1.10;;;;;;;;;;5043405;28;20450;-53
2022/05/28 08:36:09;;;;;;;1.87;1.20;;;14.40;1.00;;;;;;5047733;28;20579;-57
2022/05/28 08:38:37;;;;;;;3.13;1.77;;;14.20;1.00;;;;;;5051315;28;20431;-56
2022/05/28 08:41:12;;;;;;;3.83;1.40;;;14.20;1.00;;;;;;5050352;28;20450;-55
2022/05/28 08:43:45;;;;;;;2.70;1.50;;;;;;;;;;5050511;28;20461;-55
2022/05/28 08:46:13;;;;;;;6.20;1.43;;;15.20;1.00;;;;;;5047785;28;20486;-53
2022/05/28 08:48:51;;;;;;;4.40;1.37;;;15.10;1.00;;;;;;5041772;28;20597;-58
2022/05/28 08:51:37;;;;;;;10.40;3.37;;;15.50;1.00;;;;;;5045866;28;20943;-56
2022/05/28 08:54:42;;;;;;;1.77;1.17;;;15.40;1.00;;;;;;5048001;28;20493;-54
2022/05/28 08:57:15;;;;;;;2.33;0.90;;;15.00;1.00;;;;;;5045636;28;20447;-57
2022/05/28 09:00:05;;;;;;;2.13;1.00;;;14.90;1.00;;;;;;5045844;28;20557;-56
2022/05/28 09:02:45;;;;;;;2.63;1.03;;;14.40;1.00;;;;;;5046965;28;20454;-55
2022/05/28 09:05:25;;;;;;;1.77;1.00;;;14.20;1.00;;;;;;5047213;28;20459;-56
2022/05/28 09:07:54;;;;;;;2.63;1.20;;;14.20;1.00;;;;;;5043721;28;21362;-56
2022/05/28 09:10:20;;;;;;;8.10;1.30;;;14.20;1.00;;;;;;5042329;28;20474;-53
2022/05/28 09:13:01;;;;;;;2.03;0.90;;;14.10;1.00;;;;;;5050750;28;20446;-54
2022/05/28 09:15:27;;;;;;;3.50;1.57;;;14.10;1.00;;;;;;5046118;28;20481;-55
2022/05/28 09:17:56;;;;;;;4.30;1.83;;;14.40;1.00;;;;;;5046180;28;20431;-57
2022/05/28 09:20:37;;;;;;;3.13;1.40;;;14.60;1.00;;;;;;5053475;28;20213;-55
2022/05/28 09:23:03;;;;;;;3.43;1.30;;;14.60;1.00;;;;;;5047393;28;20453;-54
2022/05/28 09:25:34;;;;;;;5.50;1.30;;;14.60;1.00;;;;;;5051469;28;20524;-55
2022/05/28 09:28:18;;;;;;;3.10;1.00;;;14.60;1.00;;;;;;5048784;28;20450;-54
2022/05/28 09:31:01;;;;;;;4.87;1.70;;;14.20;1.00;;;;;;5055396;28;20827;-57
2022/05/28 09:34:04;;;;;;;6.23;1.10;;;14.30;1.00;;;;;;5057655;28;20449;-56
2022/05/28 09:36:35;;;;;;;2.27;1.03;;;14.50;1.00;;;;;;5047782;28;20487;-54
2022/05/28 09:39:07;;;;;;;3.97;0.90;;;14.50;1.00;;;;;;5046988;28;20438;-56
2022/05/28 09:41:42;;;;;;;5.00;1.73;;;14.80;1.00;;;;;;5049994;28;20435;-56
2022/05/28 09:44:24;;;;;;;3.37;1.03;;;15.20;1.00;;;;;;5046736;28;20434;-55
2022/05/28 09:46:50;;;;;;;3.30;1.03;;;15.50;1.00;;;;;;5045470;28;20481;-57
2022/05/28 09:49:22;;;;;;;3.27;2.13;;;15.50;1.00;;;;;;5046858;28;20459;-57
2022/05/28 09:51:57;;;;;;;2.50;1.00;;;15.50;1.00;;;;;;5045405;28;20461;-57
2022/05/28 09:54:33;;;;;;;4.17;1.03;;;15.50;1.00;;;;;;5043212;28;20442;-56
2022/05/28 09:56:59;;;;;;;1.90;0.90;;;;;;;;;;5046647;28;20450;-54
2022/05/28 09:59:37;;;;;;;3.50;0.90;;;15.70;1.00;;;;;;5045234;28;20450;-56
2022/05/28 10:02:19;;;;;;;3.90;1.07;;;16.30;1.00;;;;;;5044542;28;20450;-55
2022/05/28 10:04:57;;;;;;;3.37;1.43;;;16.20;1.00;;;;;;5044006;28;20442;-56
2022/05/28 10:07:32;;;;;;;4.73;1.00;;;16.10;1.00;;;;;;5051589;28;20544;-57
2022/05/28 10:09:58;;;;;;;3.10;1.00;;;16.10;1.00;;;;;;5049938;28;20459;-56
2022/05/28 10:12:27;;;;;;;3.70;1.60;;;16.40;1.00;;;;;;5049589;28;20442;-56
2022/05/28 10:15:01;;;;;;;2.07;0.93;;;16.60;1.00;;;;;;5048520;28;20542;-56
2022/05/28 10:17:29;;;;;;;3.50;1.10;;;16.70;1.00;;;;;;5046841;28;20462;-54
2022/05/28 10:19:56;;;;;;;2.90;1.60;;;16.70;1.00;;;;;;5048677;28;20461;-55
2022/05/28 10:22:25;;;;;;;3.10;1.43;;;16.80;1.00;;;;;;5049667;28;20485;-55
2022/05/28 10:24:57;;;;;;;2.80;1.10;;;16.50;1.00;;;;;;5053147;28;20446;-55
2022/05/28 10:27:35;;;;;;;5.03;0.87;;;16.50;1.00;;;;;;5052424;28;20471;-53
2022/05/28 10:30:21;;;;;;;3.80;1.10;;;16.20;1.00;;;;;;5050726;28;20470;-55
2022/05/28 10:32:49;;;;;;;4.10;1.37;;;16.30;1.00;;;;;;5052414;28;20499;-55
2022/05/28 10:35:26;;;;;;;1.50;1.03;;;16.30;1.00;;;;;;5052207;28;20450;-54
2022/05/28 10:38:12;;;;;;;2.63;1.00;;;16.30;1.00;;;;;;5051965;28;20525;-55
2022/05/28 10:40:48;;;;;;;6.37;1.40;;;15.90;1.00;;;;;;5053136;28;20804;-58
2022/05/28 10:43:26;;;;;;;1.83;1.00;;;15.80;1.00;;;;;;5063073;28;20507;-55
2022/05/28 10:46:02;;;;;;;2.23;1.17;;;15.70;1.00;;;;;;5052703;28;20881;-57
2022/05/28 10:48:39;;;;;;;1.40;0.87;;;15.80;1.00;;;;;;5062279;28;20478;-57
2022/05/28 10:51:26;;;;;;;3.37;1.00;;;16.20;1.00;;;;;;5052283;28;20480;-54
2022/05/28 10:54:13;;;;;;;5.20;1.40;;;16.10;1.00;;;;;;5051087;28;20431;-54
2022/05/28 10:56:52;;;;;;;2.53;1.10;;;16.40;1.00;;;;;;5064821;28;20433;-52
2022/05/28 10:59:45;;;;;;;2.13;0.80;;;16.40;1.00;;;;;;5073533;28;20429;-55
2022/05/28 11:02:22;;;;;;;1.70;1.03;;;16.40;1.00;;;;;;5073408;28;20757;-54
2022/05/28 11:05:04;;;;;;;2.27;1.00;;;16.50;1.00;;;;;;5073579;28;20457;-55
2022/05/28 11:07:44;;;;;;;6.23;1.43;;;16.70;1.00;;;;;;5073433;28;20422;-55
2022/05/28 11:10:32;;;;;;;3.77;1.20;;;16.50;1.00;;;;;;5073311;28;20510;-54
2022/05/28 11:13:00;;;;;;;3.90;1.10;;;16.20;1.00;;;;;;5073544;28;20433;-55
2022/05/28 11:15:50;;;;;;;3.70;1.23;;;16.20;1.00;;;;;;5061871;28;20749;-55
2022/05/28 11:18:24;;;;;;;2.70;0.83;;;16.00;1.00;;;;;;5068105;28;20573;-54
2022/05/28 11:21:23;;;;;;;1.83;1.00;;;16.20;1.00;;;;;;5052461;28;20444;-55
2022/05/28 11:24:24;;;;;;;5.07;1.20;;;16.40;1.00;;;;;;5053074;28;20947;-57
2022/05/28 11:27:00;;;;;;;0.83;0.60;;;16.50;1.00;;;;;;5052657;28;20446;-56
2022/05/28 11:29:33;;;;;;;3.97;1.27;;;16.80;1.00;;;;;;5052793;28;20448;-55
2022/05/28 11:32:11;;;;;;;1.63;0.80;;;16.80;1.00;;;;;;5053067;28;20450;-53
2022/05/28 11:34:53;;;;;;;2.50;1.37;;;16.90;1.00;;;;;;5052286;28;20897;-54
2022/05/28 11:37:47;;;;;;;3.53;1.20;;;16.70;1.00;;;;;;5051633;28;20443;-53
2022/05/28 11:40:31;;;;;;;3.73;0.90;;;16.90;1.00;;;;;;5052221;28;20773;-54
2022/05/28 11:43:03;;;;;;;3.20;0.87;;;17.30;1.00;;;;;;5052819;28;20470;-54
2022/05/28 11:45:42;;;;;;;2.23;1.33;;;17.50;1.00;;;;;;5054167;28;20476;-55
2022/05/28 11:48:23;;;;;;;4.47;1.03;;;17.40;1.00;;;;;;5052824;28;20521;-53
2022/05/28 11:51:28;;;;;;;3.90;1.30;;;16.70;1.00;;;;;;5064894;28;20493;-56
2022/05/28 11:54:09;;;;;;;1.50;1.00;;;16.50;1.00;;;;;;5058499;28;21112;-52
2022/05/28 11:56:35;;;;;;;2.20;1.10;;;16.40;1.00;;;;;;5050515;28;20480;-53
2022/05/28 11:59:06;;;;;;;2.40;0.77;;;16.40;1.00;;;;;;5052577;28;20498;-53
2022/05/28 12:01:45;;;;;;;7.93;1.27;;;16.70;1.00;;;;;;5051145;28;20188;-55
2022/05/28 12:04:11;;;;;;;2.87;1.30;;;16.50;1.00;;;;;;5052436;28;20441;-54
2022/05/28 12:06:42;;;;;;;2.20;1.20;;;16.40;1.00;;;;;;5050737;28;20542;-55
2022/05/28 12:09:16;;;;;;;1.67;0.73;;;16.40;1.00;;;;;;5052188;28;20947;-53
2022/05/28 12:12:01;;;;;;;3.30;0.97;;;16.80;1.00;;;;;;5052321;28;20495;-56
2022/05/28 12:14:37;;;;;;;1.77;0.80;;;17.10;1.00;;;;;;5052391;28;20430;-56
2022/05/28 12:17:08;;;;;;;1.20;0.63;;;16.70;1.00;;;;;;5052137;28;20959;-53
2022/05/28 12:19:43;;;;;;;5.20;1.73;;;16.60;1.00;;;;;;5052283;28;20434;-55
2022/05/28 12:22:51;;;;;;;4.60;0.80;;;16.60;1.00;;;;;;5069551;28;20452;-51
2022/05/28 12:25:17;;;;;;;2.57;1.13;;;17.40;1.00;;;;;;5072055;28;20445;-53
2022/05/28 12:27:55;;;;;;;3.27;0.97;;;17.40;1.00;;;;;;5067810;28;20449;-55
2022/05/28 12:30:33;;;;;;;6.10;0.80;;;17.40;1.00;;;;;;5054042;28;20208;-54
2022/05/28 12:32:59;;;;;;;2.30;0.80;;;17.30;1.00;;;;;;5071590;28;20444;-57
2022/05/28 12:35:48;;;;;;;2.03;0.67;;;17.00;1.00;;;;;;5071849;28;20436;-54
2022/05/28 12:38:22;;;;;;;1.80;1.10;;;17.00;1.00;;;;;;5060723;28;20496;-54
2022/05/28 12:41:00;;;;;;;1.80;0.80;;;17.10;1.00;;;;;;5067958;28;20434;-56
2022/05/28 12:43:29;;;;;;;2.03;0.67;;;17.30;1.00;;;;;;5060770;28;20441;-55
2022/05/28 12:45:56;;;;;;;1.20;0.70;;;17.30;1.00;;;;;;5070880;28;20465;-56
2022/05/28 12:48:30;;;;;;;2.23;0.93;;;17.00;1.00;;;;;;5071506;28;20473;-57
2022/05/28 12:51:22;;;;;;;1.43;0.83;;;16.70;1.00;;;;;;5066634;28;21029;-54
2022/05/28 12:53:57;;;;;;;2.53;1.10;;;16.70;1.00;;;;;;5051495;28;20469;-55
2022/05/28 12:56:33;;;;;;;2.40;1.00;;;16.70;1.00;;;;;;5051433;28;20430;-56
2022/05/28 12:59:29;;;;;;;1.53;0.70;;;16.80;1.00;;;;;;5051426;28;20435;-56
2022/05/28 13:02:00;;;;;;;3.93;1.30;;;16.80;1.00;;;;;;5050542;28;20458;-55
2022/05/28 13:04:42;;;;;;;1.00;0.70;;;17.00;1.00;;;;;;5046327;28;20449;-57
2022/05/28 13:07:22;;;;;;;2.23;0.97;;;16.90;1.00;;;;;;5049959;28;20437;-53
2022/05/28 13:09:50;;;;;;;1.23;0.80;;;17.60;1.00;;;;;;5048122;28;20465;-55
2022/05/28 13:12:27;;;;;;;2.33;1.03;;;17.60;1.00;;;;;;5051186;28;20449;-58
2022/05/28 13:15:19;;;;;;;2.23;1.03;;;17.70;1.00;;;;;;5052465;28;20446;-56
2022/05/28 13:18:16;;;;;;;3.23;0.90;;;17.60;1.00;;;;;;5055704;28;20438;-55
2022/05/28 13:21:16;;;;;;;0.93;0.70;;;17.50;1.00;;;;;;5051322;28;20503;-56
2022/05/28 13:23:56;;;;;;;0.70;0.70;;;17.20;1.00;;;;;;5050404;28;20541;-53
2022/05/28 13:26:34;;;;;;;1.83;0.97;;;17.20;1.00;;;;;;5050755;28;20442;-52